SLRF weather

Refugio Airport
Velasco, Santa Cruz Department, Bolivia

Public forecast

Using degrees Celsius for public forecast. Weather courtesy of forecast.io.

METAR (pilot weather report)

Closest report is Capit├ín Av. Juan Cochamanidis S. Airport, 97.4 nm (180.4 km) S. Retrieved 2019/02/23 10:00 UTC (47 minutes ago):

SLSI 231000Z 00000KT 9999 SCT015 BKN070 23/22 Q1013

TAF (pilot weather forecast)

Forecast is more than 12 hours old.

Closest forecast is Teniente Av. Jorge Henrich Arauz Airport, 225.6 nm (417.8 km) W. Retrieved 2019/02/22 00:10 UTC (1 day ago):

TAF SLTR 222310Z 2300/2324 00000KT 9999 NSC TX33/2320Z TN23/2310Z BECMG 2312/2314 34007KT SCT015 TEMPO 2315/2317 8000 VCSH FEW020CB